createdAt,value
2023-01-10T18:01:36.231Z,7.10
2023-01-10T18:06:41.904Z,5.90
2023-01-10T18:11:47.250Z,5.93
2023-01-10T18:16:55.251Z,4.63
2023-01-10T18:22:00.571Z,6.37
2023-01-10T18:27:05.794Z,8.57
2023-01-10T18:32:13.570Z,4.20
2023-01-10T18:37:18.683Z,7.17
2023-01-10T18:42:23.798Z,5.93
2023-01-10T18:47:31.561Z,3.27
2023-01-10T18:52:36.906Z,5.10
2023-01-10T18:57:41.972Z,3.97
2023-01-10T19:02:50.139Z,4.40
2023-01-10T19:07:55.374Z,3.77
2023-01-10T19:13:02.267Z,5.20
2023-01-10T19:18:10.236Z,4.97
2023-01-10T19:23:15.577Z,4.50
2023-01-10T19:28:20.834Z,4.23
2023-01-10T19:33:29.009Z,5.77
2023-01-10T19:38:34.322Z,4.27
2023-01-10T19:43:39.424Z,2.73
2023-01-10T19:48:47.201Z,1.73
2023-01-10T19:53:52.315Z,2.87
2023-01-10T19:58:57.895Z,3.63
2023-01-10T20:04:06.678Z,2.30
2023-01-10T20:09:13.406Z,3.77
2023-01-10T20:14:19.719Z,2.40
2023-01-10T20:19:28.062Z,3.03
2023-01-10T20:24:33.252Z,3.33
2023-01-10T20:29:39.452Z,2.80
2023-01-10T20:34:50.064Z,2.83
2023-01-10T20:39:55.271Z,3.83
2023-01-10T20:45:00.702Z,2.97
2023-01-10T20:50:10.539Z,1.73
2023-01-10T20:55:19.778Z,2.03
2023-01-10T21:00:25.341Z,2.30
2023-01-10T21:05:33.309Z,2.53
2023-01-10T21:10:38.795Z,1.57
2023-01-10T21:15:44.205Z,2.20
2023-01-10T21:20:52.067Z,2.00
2023-01-10T21:26:00.081Z,2.27
2023-01-10T21:31:05.245Z,1.70
2023-01-10T21:36:13.603Z,1.87
2023-01-10T21:41:40.849Z,2.20
2023-01-10T21:46:48.822Z,2.10
2023-01-10T21:51:57.830Z,1.33
2023-01-10T21:57:03.790Z,2.30
2023-01-10T22:02:08.856Z,1.63
2023-01-10T22:07:16.628Z,2.47
2023-01-10T22:12:22.083Z,1.57
2023-01-10T22:17:27.470Z,1.30
